createdAt,value
2018-07-11T00:00:15.912Z,63.83
2018-07-11T00:02:21.143Z,63.73
2018-07-11T00:04:26.335Z,64.22
2018-07-11T00:06:31.110Z,64.37
2018-07-11T00:08:35.832Z,64.91
2018-07-11T00:10:40.660Z,64.65
2018-07-11T00:12:45.451Z,64.78
2018-07-11T00:14:50.273Z,65.33
2018-07-11T00:17:00.490Z,65.31
2018-07-11T00:19:06.303Z,65.30
2018-07-11T00:21:11.143Z,64.75
2018-07-11T00:23:15.952Z,65.05
2018-07-11T00:25:21.023Z,65.66
2018-07-11T00:27:25.837Z,65.71
2018-07-11T00:29:30.678Z,66.19
2018-07-11T00:31:35.516Z,66.58
2018-07-11T00:33:40.381Z,66.68
2018-07-11T00:35:45.436Z,65.75
2018-07-11T00:37:50.261Z,65.85
2018-07-11T00:39:55.007Z,67.00
2018-07-11T00:41:59.900Z,67.73
2018-07-11T00:44:04.793Z,67.13
2018-07-11T00:46:09.561Z,67.48
2018-07-11T00:48:14.743Z,67.67
2018-07-11T00:50:19.508Z,68.05
2018-07-11T00:52:24.392Z,67.75
2018-07-11T00:54:29.195Z,68.55
2018-07-11T00:56:33.995Z,68.47
2018-07-11T00:58:42.128Z,68.65
2018-07-11T01:01:17.554Z,68.94
2018-07-11T01:03:22.308Z,68.61
2018-07-11T01:05:27.109Z,68.97
2018-07-11T01:07:32.172Z,69.09
2018-07-11T01:09:46.739Z,69.37
2018-07-11T01:11:51.517Z,69.89
2018-07-11T01:13:56.321Z,70.17
2018-07-11T01:16:01.198Z,70.75
2018-07-11T01:18:11.082Z,70.33
2018-07-11T01:20:16.295Z,70.85
2018-07-11T01:22:21.146Z,71.06
2018-07-11T01:24:25.945Z,71.33
2018-07-11T01:26:34.739Z,71.25
2018-07-11T01:28:39.566Z,71.39
2018-07-11T01:30:44.277Z,71.83
2018-07-11T01:32:55.637Z,72.37
2018-07-11T01:35:00.302Z,72.04
2018-07-11T01:37:05.213Z,72.01
2018-07-11T01:39:10.031Z,72.69
2018-07-11T01:41:14.967Z,72.80
2018-07-11T01:43:19.726Z,73.07
2018-07-11T01:45:24.515Z,73.00
2018-07-11T01:47:29.319Z,72.98
2018-07-11T01:49:34.057Z,73.92
2018-07-11T01:51:55.553Z,73.55
2018-07-11T01:54:00.500Z,73.28
2018-07-11T01:56:05.583Z,73.80
2018-07-11T01:58:10.426Z,74.13
2018-07-11T02:00:15.326Z,74.42
2018-07-11T02:02:20.133Z,74.82
2018-07-11T02:04:24.951Z,74.48
2018-07-11T02:06:29.731Z,74.52
2018-07-11T02:08:34.506Z,74.81
2018-07-11T02:10:39.375Z,75.29
2018-07-11T02:12:44.439Z,75.40
2018-07-11T02:14:54.309Z,75.58
2018-07-11T02:16:59.445Z,76.21
2018-07-11T02:19:04.462Z,74.76
2018-07-11T02:21:09.331Z,75.33
2018-07-11T02:23:14.167Z,75.41
2018-07-11T02:25:19.114Z,74.56
2018-07-11T02:27:23.898Z,74.97
2018-07-11T02:29:28.684Z,75.32
2018-07-11T02:31:33.638Z,75.75
2018-07-11T02:33:38.611Z,74.16
2018-07-11T02:35:43.401Z,73.38
2018-07-11T02:37:48.154Z,73.78
2018-07-11T02:39:52.939Z,74.83
2018-07-11T02:41:58.372Z,73.86
2018-07-11T02:44:03.331Z,74.47
2018-07-11T02:46:08.215Z,75.13
2018-07-11T02:48:13.062Z,75.09
2018-07-11T02:50:18.061Z,74.70
2018-07-11T02:52:22.776Z,74.79
2018-07-11T02:54:27.609Z,74.44
2018-07-11T02:56:32.442Z,75.50
2018-07-11T02:58:37.184Z,75.40
2018-07-11T03:00:41.992Z,75.20
2018-07-11T03:02:46.766Z,74.81
2018-07-11T03:04:51.619Z,73.62
2018-07-11T03:06:56.445Z,75.33
2018-07-11T03:09:01.207Z,76.45
2018-07-11T03:11:06.773Z,76.24
2018-07-11T03:13:11.513Z,76.03
2018-07-11T03:15:16.356Z,76.87
2018-07-11T03:17:21.434Z,76.50
2018-07-11T03:19:26.135Z,77.32
2018-07-11T03:21:30.956Z,76.98
2018-07-11T03:23:35.710Z,77.38
2018-07-11T03:25:40.414Z,76.88
2018-07-11T03:27:45.183Z,77.47
2018-07-11T03:29:49.880Z,77.97
2018-07-11T03:31:54.623Z,77.39
2018-07-11T03:33:59.606Z,78.13
2018-07-11T03:36:04.368Z,78.56
2018-07-11T03:38:09.096Z,78.42
2018-07-11T03:40:17.792Z,78.75
2018-07-11T03:42:22.585Z,78.84
2018-07-11T03:44:27.539Z,78.74
2018-07-11T03:46:32.539Z,79.57
2018-07-11T03:48:37.296Z,79.22
2018-07-11T03:50:42.010Z,78.21
2018-07-11T03:52:46.758Z,79.28
2018-07-11T03:54:51.600Z,79.43
2018-07-11T03:56:56.299Z,79.97
2018-07-11T03:59:01.045Z,80.28
2018-07-11T04:01:05.828Z,80.45
2018-07-11T04:03:10.570Z,80.77
2018-07-11T04:05:15.446Z,80.54
2018-07-11T04:07:20.302Z,80.79
2018-07-11T04:09:24.966Z,80.19
2018-07-11T04:11:29.691Z,80.34
2018-07-11T04:13:34.362Z,79.79
2018-07-11T04:15:39.072Z,80.36
2018-07-11T04:17:43.764Z,79.80
2018-07-11T04:19:48.599Z,79.41
2018-07-11T04:21:53.786Z,78.93
2018-07-11T04:23:58.953Z,78.84
2018-07-11T04:26:04.271Z,79.42
2018-07-11T04:28:09.125Z,78.83
2018-07-11T04:30:14.234Z,78.75
2018-07-11T04:32:19.027Z,80.01
2018-07-11T04:34:23.878Z,79.97
2018-07-11T04:36:28.771Z,80.44
2018-07-11T04:38:33.622Z,80.04
2018-07-11T04:40:38.623Z,79.80
2018-07-11T04:42:43.580Z,79.39
2018-07-11T04:44:49.032Z,78.55
2018-07-11T04:46:54.062Z,78.23
2018-07-11T04:48:59.376Z,79.00
2018-07-11T04:51:04.183Z,78.64
2018-07-11T04:53:11.419Z,78.56
2018-07-11T04:55:16.324Z,78.56
2018-07-11T04:57:21.425Z,78.65
2018-07-11T04:59:26.164Z,78.29
2018-07-11T05:01:30.934Z,77.96
2018-07-11T05:03:35.665Z,77.99
2018-07-11T05:05:40.596Z,78.27
2018-07-11T05:07:45.309Z,78.51
2018-07-11T05:09:50.091Z,78.58
2018-07-11T05:11:54.804Z,78.21
2018-07-11T05:13:59.571Z,78.08
2018-07-11T05:16:04.931Z,78.52
2018-07-11T05:18:10.564Z,78.47
2018-07-11T05:20:15.361Z,78.69
2018-07-11T05:22:20.196Z,79.14
2018-07-11T05:24:25.041Z,78.53
2018-07-11T05:26:30.369Z,77.81
2018-07-11T05:28:35.633Z,78.57
2018-07-11T05:30:40.444Z,78.45
2018-07-11T05:32:45.376Z,77.63
2018-07-11T05:34:50.231Z,76.85
2018-07-11T05:36:54.957Z,77.02
2018-07-11T05:38:59.840Z,76.16
2018-07-11T05:41:04.635Z,76.37
2018-07-11T05:43:09.539Z,76.10
2018-07-11T05:45:14.449Z,77.18
2018-07-11T05:47:19.539Z,77.15
2018-07-11T05:49:24.326Z,77.55
2018-07-11T05:51:29.430Z,77.40
2018-07-11T05:53:34.569Z,77.22
2018-07-11T05:55:39.459Z,77.71
2018-07-11T05:57:44.171Z,76.66
2018-07-11T05:59:49.006Z,77.00
2018-07-11T06:01:53.799Z,76.74
2018-07-11T06:03:58.592Z,75.16
2018-07-11T06:06:03.377Z,75.75
2018-07-11T06:08:08.193Z,75.73
2018-07-11T06:10:13.074Z,75.73
2018-07-11T06:12:17.879Z,76.43
2018-07-11T06:14:22.277Z,76.04
2018-07-11T06:16:27.171Z,75.27
2018-07-11T06:18:31.871Z,76.00
2018-07-11T06:20:36.695Z,75.70
2018-07-11T06:22:41.494Z,75.15
2018-07-11T06:24:46.243Z,75.36
2018-07-11T06:26:51.074Z,74.56
2018-07-11T06:28:55.893Z,75.09
2018-07-11T06:31:00.800Z,74.62
2018-07-11T06:33:05.849Z,74.23
2018-07-11T06:35:10.748Z,73.67
2018-07-11T06:37:15.790Z,73.95
2018-07-11T06:39:21.109Z,74.84
2018-07-11T06:41:26.081Z,74.39
2018-07-11T06:43:31.013Z,74.66
2018-07-11T06:45:35.914Z,73.94
2018-07-11T06:47:40.767Z,73.23
2018-07-11T06:49:47.141Z,71.64
2018-07-11T06:51:51.912Z,72.20
2018-07-11T06:53:56.813Z,72.73
2018-07-11T06:56:01.818Z,72.54
2018-07-11T06:58:07.100Z,73.17
2018-07-11T07:00:12.085Z,71.94
2018-07-11T07:02:16.986Z,72.64
2018-07-11T07:04:21.881Z,73.08
2018-07-11T07:06:26.796Z,72.30
2018-07-11T07:08:31.640Z,71.57
2018-07-11T07:10:36.575Z,70.86
2018-07-11T07:12:41.454Z,70.44
2018-07-11T07:14:46.577Z,70.75
2018-07-11T07:16:51.420Z,70.61
2018-07-11T07:18:56.222Z,70.79
2018-07-11T07:21:01.038Z,71.49
2018-07-11T07:23:06.186Z,69.60
2018-07-11T07:25:11.054Z,68.00
2018-07-11T07:27:18.081Z,67.87
2018-07-11T07:29:23.203Z,68.56
2018-07-11T07:31:28.052Z,68.09
2018-07-11T07:33:33.313Z,67.92
2018-07-11T07:35:38.210Z,68.84
2018-07-11T07:37:43.097Z,68.56
2018-07-11T07:39:48.008Z,68.58
2018-07-11T07:41:52.869Z,67.79
2018-07-11T07:43:58.089Z,68.07
2018-07-11T07:46:02.978Z,67.28
2018-07-11T07:48:08.141Z,66.82
2018-07-11T07:50:13.498Z,66.76
2018-07-11T07:52:18.430Z,66.14
2018-07-11T07:54:23.277Z,65.48
2018-07-11T07:56:28.233Z,65.59
2018-07-11T07:58:33.114Z,64.98
2018-07-11T08:00:38.210Z,66.11
2018-07-11T08:02:43.170Z,66.65
2018-07-11T08:04:48.685Z,65.99
2018-07-11T08:06:53.635Z,65.26
2018-07-11T08:08:58.715Z,65.27
2018-07-11T08:11:03.493Z,64.03
2018-07-11T08:13:08.531Z,64.31
2018-07-11T08:15:13.394Z,62.19
2018-07-11T08:17:18.790Z,63.96
2018-07-11T08:19:24.017Z,63.40
2018-07-11T08:21:31.736Z,62.47
2018-07-11T08:23:53.221Z,62.95
2018-07-11T08:26:14.545Z,61.64
2018-07-11T08:29:34.844Z,61.43
2018-07-11T08:32:08.223Z,59.57
2018-07-11T08:36:35.952Z,58.26
2018-07-11T08:41:00.518Z,56.78
2018-07-11T08:46:25.440Z,55.73
2018-07-11T08:49:49.667Z,56.14
2018-07-11T08:52:42.997Z,55.37
2018-07-11T08:57:20.690Z,55.56
2018-07-11T09:02:57.169Z,53.25
2018-07-11T09:05:22.594Z,53.80
2018-07-11T09:08:48.499Z,53.60
2018-07-11T09:11:14.040Z,53.08
2018-07-11T09:13:45.430Z,54.25
2018-07-11T09:17:09.892Z,52.72
2018-07-11T09:19:31.057Z,50.92
2018-07-11T09:24:53.477Z,50.15
2018-07-11T09:26:58.289Z,46.79
2018-07-11T09:29:03.203Z,47.63
2018-07-11T09:31:08.130Z,47.95
2018-07-11T09:33:12.925Z,47.90
2018-07-11T09:35:17.801Z,47.98
2018-07-11T09:37:22.514Z,47.40
2018-07-11T09:39:27.267Z,46.20
2018-07-11T09:41:32.226Z,45.73
2018-07-11T09:43:37.123Z,46.37
2018-07-11T09:45:42.761Z,44.64
2018-07-11T09:47:47.575Z,45.05
2018-07-11T09:49:52.417Z,45.99
2018-07-11T09:51:57.214Z,46.11
2018-07-11T09:54:02.062Z,44.98
2018-07-11T09:56:07.189Z,44.53
2018-07-11T09:58:12.113Z,44.53
2018-07-11T10:00:22.160Z,43.75
2018-07-11T10:02:27.230Z,43.02
2018-07-11T10:04:32.862Z,42.17
2018-07-11T10:06:37.709Z,42.24
2018-07-11T10:08:42.615Z,43.42
2018-07-11T10:10:47.425Z,41.68
2018-07-11T10:12:52.391Z,42.43
2018-07-11T10:14:57.303Z,42.62
2018-07-11T10:17:02.150Z,43.38
2018-07-11T10:19:07.083Z,43.99
2018-07-11T10:21:11.904Z,44.60
2018-07-11T10:23:16.887Z,45.43
2018-07-11T10:25:22.467Z,45.96
2018-07-11T10:27:27.569Z,46.40
2018-07-11T10:29:32.518Z,46.31
2018-07-11T10:31:37.818Z,46.00
2018-07-11T10:33:44.436Z,46.40
2018-07-11T10:35:49.162Z,46.03
2018-07-11T10:37:53.908Z,43.93
2018-07-11T10:39:58.634Z,43.24
2018-07-11T10:42:03.400Z,44.58
2018-07-11T10:44:08.224Z,43.95
2018-07-11T10:46:13.014Z,44.11
2018-07-11T10:48:18.125Z,42.79
2018-07-11T10:50:22.946Z,41.70
2018-07-11T10:52:29.462Z,40.79
2018-07-11T10:54:34.193Z,41.33
2018-07-11T10:56:39.040Z,39.76
2018-07-11T10:58:43.885Z,40.93
2018-07-11T11:01:05.020Z,41.58
2018-07-11T11:04:53.935Z,42.82
2018-07-11T11:06:58.788Z,41.59
2018-07-11T11:09:03.869Z,40.72
2018-07-11T11:11:09.000Z,39.85
2018-07-11T11:13:13.869Z,39.89
2018-07-11T11:15:18.882Z,38.11
2018-07-11T11:17:23.853Z,38.31
2018-07-11T11:19:28.782Z,39.40
2018-07-11T11:21:33.805Z,38.43
2018-07-11T11:23:39.097Z,39.19
2018-07-11T11:25:43.996Z,37.35
2018-07-11T11:27:48.720Z,37.11
2018-07-11T11:29:53.450Z,36.90
2018-07-11T11:31:58.370Z,37.25
2018-07-11T11:34:03.082Z,37.18
2018-07-11T11:36:08.082Z,37.19
2018-07-11T11:38:12.950Z,38.18
2018-07-11T11:40:17.881Z,39.27
2018-07-11T11:42:23.314Z,40.76
2018-07-11T11:44:27.785Z,43.06
2018-07-11T11:46:32.572Z,44.57
2018-07-11T11:48:37.415Z,46.03
2018-07-11T11:50:42.323Z,46.50
2018-07-11T11:52:47.188Z,46.81
2018-07-11T11:54:52.347Z,46.64
2018-07-11T11:56:57.257Z,46.72
2018-07-11T11:59:02.232Z,46.73
2018-07-11T12:01:07.116Z,46.67
2018-07-11T12:03:11.922Z,45.97
2018-07-11T12:05:16.974Z,46.09
2018-07-11T12:07:21.877Z,45.86
2018-07-11T12:09:26.830Z,45.83
2018-07-11T12:11:31.735Z,45.82
2018-07-11T12:13:36.533Z,46.16
2018-07-11T12:15:41.377Z,46.90
2018-07-11T12:17:46.209Z,46.93
2018-07-11T12:19:51.017Z,47.39
2018-07-11T12:21:56.173Z,46.82
2018-07-11T12:24:00.966Z,46.95
2018-07-11T12:26:09.466Z,47.02
2018-07-11T12:28:14.299Z,46.67
2018-07-11T12:30:19.058Z,46.63
2018-07-11T12:32:23.958Z,45.19
2018-07-11T12:34:28.792Z,45.01
2018-07-11T12:36:33.591Z,45.20
2018-07-11T12:38:38.374Z,45.00
2018-07-11T12:40:43.292Z,44.67
2018-07-11T12:42:48.151Z,44.57
2018-07-11T12:44:52.976Z,44.48
2018-07-11T12:46:57.818Z,43.83
2018-07-11T12:49:04.547Z,44.69
2018-07-11T12:51:09.551Z,43.54
2018-07-11T12:53:14.535Z,44.17
2018-07-11T12:55:19.429Z,44.10
2018-07-11T12:57:25.122Z,43.87
2018-07-11T12:59:30.188Z,43.37
2018-07-11T13:01:35.970Z,43.62
2018-07-11T13:03:40.808Z,44.74
2018-07-11T13:05:46.066Z,44.25
2018-07-11T13:07:54.940Z,44.43
2018-07-11T13:10:02.924Z,43.87
2018-07-11T13:12:08.136Z,43.98
2018-07-11T13:14:12.881Z,43.50
2018-07-11T13:16:18.023Z,43.44
2018-07-11T13:18:22.783Z,44.21
2018-07-11T13:20:27.738Z,44.37
2018-07-11T13:22:37.508Z,44.36
2018-07-11T13:24:42.651Z,45.19
2018-07-11T13:26:47.663Z,44.69
2018-07-11T13:28:52.495Z,45.77
2018-07-11T13:30:57.215Z,46.31
2018-07-11T13:33:02.127Z,45.97
2018-07-11T13:35:06.961Z,46.44
2018-07-11T13:37:12.115Z,46.49
2018-07-11T13:39:21.118Z,46.91
2018-07-11T13:41:25.930Z,46.90
2018-07-11T13:43:30.766Z,46.92
2018-07-11T13:45:35.567Z,47.56
2018-07-11T13:47:41.159Z,47.77
2018-07-11T13:49:46.095Z,47.69
2018-07-11T13:51:51.212Z,47.96
2018-07-11T13:53:55.921Z,48.24
2018-07-11T13:58:16.949Z,50.71
2018-07-11T14:00:22.254Z,50.64
2018-07-11T14:02:27.067Z,50.82
2018-07-11T14:04:32.557Z,50.62
2018-07-11T14:06:37.452Z,50.58
2018-07-11T14:08:42.360Z,50.64
2018-07-11T14:10:47.365Z,50.68
2018-07-11T14:12:52.345Z,50.56
2018-07-11T14:14:57.149Z,50.55
2018-07-11T14:17:02.298Z,51.27
2018-07-11T14:19:07.148Z,51.23
2018-07-11T14:21:12.033Z,51.23
2018-07-11T14:23:52.505Z,52.00
2018-07-11T14:25:58.129Z,52.95
2018-07-11T14:28:03.700Z,53.70
2018-07-11T14:30:09.001Z,53.88
2018-07-11T14:32:13.841Z,53.94
2018-07-11T14:34:19.045Z,54.50
2018-07-11T14:36:24.057Z,55.96
2018-07-11T14:38:30.052Z,59.93
2018-07-11T14:40:34.892Z,64.21
2018-07-11T14:42:40.317Z,68.14
2018-07-11T14:44:45.876Z,70.33
2018-07-11T14:46:51.201Z,73.14
2018-07-11T14:48:56.692Z,73.95
2018-07-11T14:51:03.064Z,74.76
2018-07-11T14:53:07.815Z,75.08
2018-07-11T14:55:14.150Z,75.58
2018-07-11T14:57:19.530Z,76.87
2018-07-11T14:59:25.463Z,76.16
2018-07-11T15:01:31.257Z,75.50
2018-07-11T15:03:36.347Z,75.47
2018-07-11T15:05:41.509Z,75.00
2018-07-11T15:07:46.653Z,74.11
2018-07-11T15:09:51.522Z,73.85
2018-07-11T15:11:56.448Z,73.05
2018-07-11T15:14:01.367Z,71.57
2018-07-11T15:18:23.689Z,70.29
2018-07-11T15:20:29.273Z,70.27
2018-07-11T15:22:34.172Z,69.54
2018-07-11T15:24:39.165Z,68.21
2018-07-11T15:26:44.135Z,67.61
2018-07-11T15:28:49.168Z,67.58
2018-07-11T15:30:54.469Z,66.27
2018-07-11T15:33:00.090Z,64.73
2018-07-11T15:35:06.184Z,63.61
2018-07-11T15:37:11.409Z,63.17
2018-07-11T15:39:17.289Z,62.68
2018-07-11T15:41:22.340Z,62.39
2018-07-11T15:43:28.312Z,62.63
2018-07-11T15:45:33.357Z,62.28
2018-07-11T15:47:43.424Z,62.24
2018-07-11T15:49:48.910Z,63.40
2018-07-11T15:51:53.787Z,63.57
2018-07-11T15:53:58.693Z,64.33
2018-07-11T15:56:03.625Z,65.86
2018-07-11T15:58:12.545Z,69.46
2018-07-11T16:00:17.524Z,71.98
2018-07-11T16:02:23.603Z,71.84
2018-07-11T16:04:37.748Z,72.99
2018-07-11T16:06:45.968Z,73.49
2018-07-11T16:08:52.395Z,76.22
2018-07-11T16:11:01.101Z,75.94
2018-07-11T16:13:05.914Z,76.74
2018-07-11T16:15:11.445Z,78.87
2018-07-11T16:17:16.377Z,78.59
2018-07-11T16:19:21.167Z,78.84
2018-07-11T16:21:26.083Z,78.03
2018-07-11T16:23:31.098Z,77.54
2018-07-11T16:25:36.198Z,78.07
2018-07-11T16:27:41.189Z,78.99
2018-07-11T16:29:46.133Z,78.48
2018-07-11T16:31:51.025Z,76.70
2018-07-11T16:33:58.030Z,78.34
2018-07-11T16:36:03.113Z,76.08
2018-07-11T16:38:09.896Z,76.32
2018-07-11T16:40:14.891Z,76.28
2018-07-11T16:42:20.939Z,75.10
2018-07-11T16:44:25.761Z,77.00
2018-07-11T16:46:30.726Z,77.12
2018-07-11T16:48:36.546Z,74.73
2018-07-11T16:50:41.563Z,76.63
2018-07-11T16:52:47.419Z,77.96
2018-07-11T16:54:52.376Z,78.37
2018-07-11T16:56:57.510Z,78.12
2018-07-11T16:59:05.121Z,78.92
2018-07-11T17:01:10.147Z,79.90
2018-07-11T17:03:15.843Z,81.22
2018-07-11T17:05:22.516Z,82.95
2018-07-11T17:07:27.827Z,86.48
2018-07-11T17:09:39.050Z,86.82
2018-07-11T17:11:46.313Z,87.52
2018-07-11T17:13:59.099Z,88.18
2018-07-11T17:16:04.250Z,88.33
2018-07-11T17:18:12.233Z,89.11
2018-07-11T17:20:17.114Z,88.50
2018-07-11T17:22:29.029Z,89.53
2018-07-11T17:24:44.477Z,89.16
2018-07-11T17:26:58.339Z,88.59
2018-07-11T17:29:11.265Z,88.36
2018-07-11T17:31:17.459Z,88.51
2018-07-11T17:33:23.360Z,88.31
2018-07-11T17:35:28.968Z,88.46
2018-07-11T17:38:00.392Z,88.68
2018-07-11T17:43:11.070Z,88.63
2018-07-11T17:45:18.629Z,88.02
2018-07-11T17:47:27.412Z,87.32
2018-07-11T17:49:42.957Z,87.68
2018-07-11T17:52:12.864Z,88.17
2018-07-11T17:54:18.410Z,87.08
2018-07-11T17:56:27.611Z,86.31
2018-07-11T17:58:59.087Z,87.32
2018-07-11T18:01:07.296Z,87.14
2018-07-11T18:05:29.782Z,87.09
2018-07-11T18:07:50.477Z,85.74
2018-07-11T18:10:04.630Z,85.64
2018-07-11T18:12:22.547Z,86.50
2018-07-11T18:15:41.540Z,85.50
2018-07-11T18:18:31.694Z,85.82
2018-07-11T18:22:03.422Z,86.03
2018-07-11T18:25:25.876Z,85.77
2018-07-11T18:27:45.951Z,85.49
2018-07-11T18:32:04.167Z,85.75
2018-07-11T18:37:08.265Z,86.32
2018-07-11T18:39:30.926Z,87.20
2018-07-11T18:42:53.332Z,87.08
2018-07-11T18:47:26.823Z,86.09
2018-07-11T18:49:53.196Z,87.00
2018-07-11T18:52:38.604Z,86.74
2018-07-11T18:54:56.773Z,86.41
2018-07-11T18:57:14.664Z,86.57
2018-07-11T19:01:48.986Z,86.40
2018-07-11T19:04:18.625Z,85.35
2018-07-11T19:06:39.807Z,86.23
2018-07-11T19:09:11.808Z,86.45
2018-07-11T19:11:29.120Z,86.80
2018-07-11T19:19:32.961Z,85.80
2018-07-11T19:21:58.133Z,86.30
2018-07-11T19:24:09.517Z,86.23
2018-07-11T19:26:56.615Z,84.60
2018-07-11T19:29:23.662Z,84.11
2018-07-11T19:31:51.248Z,84.67
2018-07-11T19:34:12.372Z,84.77
2018-07-11T19:36:33.315Z,85.91
2018-07-11T19:38:47.172Z,85.39
2018-07-11T19:41:33.920Z,86.59
2018-07-11T19:44:02.862Z,86.35
2018-07-11T19:48:27.757Z,86.18
2018-07-11T19:50:53.244Z,85.63
2018-07-11T19:57:18.473Z,86.71
2018-07-11T19:59:24.983Z,85.14
2018-07-11T20:01:32.875Z,84.79
2018-07-11T20:03:40.625Z,85.20
2018-07-11T20:05:53.347Z,85.40
2018-07-11T20:07:55.018Z,87.42
2018-07-11T20:10:02.429Z,87.10
2018-07-11T20:12:08.638Z,87.07
2018-07-11T20:14:15.658Z,86.95
2018-07-11T20:16:23.948Z,87.14
2018-07-11T20:18:31.107Z,89.11
2018-07-11T20:20:38.984Z,87.57
2018-07-11T20:22:46.135Z,88.03
2018-07-11T20:24:53.195Z,87.25
2018-07-11T20:27:02.069Z,87.19
2018-07-11T20:29:08.725Z,89.39
2018-07-11T20:31:15.450Z,89.37
2018-07-11T20:33:21.473Z,87.59
2018-07-11T20:35:29.951Z,88.79
2018-07-11T20:37:37.011Z,89.75
2018-07-11T20:39:46.180Z,89.95
2018-07-11T20:41:53.905Z,90.08
2018-07-11T20:44:00.075Z,90.46
2018-07-11T20:46:08.393Z,89.91
2018-07-11T20:50:53.360Z,90.30
2018-07-11T20:52:59.068Z,89.33
2018-07-11T20:55:04.838Z,88.78
2018-07-11T20:57:13.415Z,87.63
2018-07-11T21:01:37.704Z,89.07
2018-07-11T21:06:08.076Z,88.85
2018-07-11T21:09:40.946Z,89.99
2018-07-11T21:16:21.216Z,90.59
2018-07-11T21:19:05.990Z,88.42
2018-07-11T21:21:11.038Z,89.46
2018-07-11T21:23:17.393Z,89.77
2018-07-11T21:25:22.334Z,90.47
2018-07-11T21:27:28.005Z,91.09
2018-07-11T21:29:38.180Z,91.17
2018-07-11T21:31:43.418Z,92.50
2018-07-11T21:33:49.115Z,92.11
2018-07-11T21:35:56.478Z,92.27
2018-07-11T21:38:02.418Z,91.83
2018-07-11T21:40:08.567Z,91.44
2018-07-11T21:42:14.128Z,89.95
2018-07-11T21:44:19.823Z,90.39
2018-07-11T21:46:24.873Z,90.58
2018-07-11T21:48:30.532Z,90.33
2018-07-11T21:50:35.524Z,90.85
2018-07-11T21:52:41.255Z,88.11
2018-07-11T21:54:46.696Z,87.94
2018-07-11T21:56:52.399Z,88.71
2018-07-11T21:59:00.570Z,89.33
2018-07-11T22:01:09.752Z,89.26
2018-07-11T22:03:14.854Z,87.67
2018-07-11T22:05:20.496Z,88.30
2018-07-11T22:07:26.543Z,87.69
2018-07-11T22:09:33.969Z,89.12
2018-07-11T22:11:39.449Z,88.98
2018-07-11T22:13:46.721Z,89.42
2018-07-11T22:15:51.666Z,88.26
2018-07-11T22:18:13.064Z,87.25
2018-07-11T22:20:16.055Z,87.42
2018-07-11T22:22:19.140Z,87.77
2018-07-11T22:24:22.557Z,86.76
2018-07-11T22:26:26.069Z,85.75
2018-07-11T22:28:29.004Z,86.45
2018-07-11T22:30:32.059Z,87.07
2018-07-11T22:32:35.145Z,87.12
2018-07-11T22:34:38.314Z,87.60
2018-07-11T22:36:41.286Z,88.32
2018-07-11T22:38:44.337Z,87.25
2018-07-11T22:40:47.243Z,87.57
2018-07-11T22:42:50.417Z,87.84
2018-07-11T22:44:53.419Z,86.97
2018-07-11T22:46:56.666Z,88.05
2018-07-11T22:48:59.867Z,88.19
2018-07-11T22:51:02.901Z,88.13
2018-07-11T22:53:05.923Z,88.09
2018-07-11T22:55:08.806Z,88.37
2018-07-11T22:57:11.819Z,89.19
2018-07-11T22:59:15.715Z,89.00
2018-07-11T23:01:18.765Z,88.95
2018-07-11T23:03:21.842Z,89.92
2018-07-11T23:05:24.773Z,89.88
2018-07-11T23:07:27.668Z,90.44
2018-07-11T23:09:30.684Z,89.60
2018-07-11T23:11:34.356Z,89.81
2018-07-11T23:13:37.354Z,88.83
2018-07-11T23:15:40.363Z,89.15
2018-07-11T23:17:44.302Z,89.70
2018-07-11T23:19:47.214Z,88.47
2018-07-11T23:21:50.290Z,88.05
2018-07-11T23:23:53.829Z,88.26
2018-07-11T23:25:57.072Z,87.51
2018-07-11T23:27:59.938Z,88.53
2018-07-11T23:30:03.210Z,88.61
2018-07-11T23:32:06.162Z,89.10
2018-07-11T23:34:09.307Z,87.81
2018-07-11T23:36:12.494Z,88.55
2018-07-11T23:38:16.047Z,89.16
2018-07-11T23:40:19.808Z,89.12
2018-07-11T23:42:22.755Z,89.05
2018-07-11T23:44:25.663Z,90.21
2018-07-11T23:46:28.751Z,89.25
2018-07-11T23:48:31.621Z,89.54
2018-07-11T23:50:34.538Z,89.37
2018-07-11T23:52:37.563Z,88.43
2018-07-11T23:54:40.492Z,88.75
2018-07-11T23:56:43.387Z,88.19
2018-07-11T23:58:46.769Z,88.90
